Lamont, Iowa
Current Conditions -  °F | °C
As of 4:35 PM on Monday 20 Oct 2014 (Local Time) from KOLZ Reporting Station
Clear Clear  
Wind Chill: 66°   Ceiling: Unl
Heat Index: 66°   Visibility: 10mi
Dew Point: 41°   Wind: 18mph
Humidity: 40%   Direction: 330°NNW
Pressure: 29.97"   Gusts: 25mph
Location:  42.6°N, 91.64°W
Report Text: KOLZ 202135Z AUTO 33016G22KT 10SM CLR 19/05 A2997 RMK AO2
Loading
Personal Weather Stations






























Interactive Weather Map
Tropical Storm Tracking
New forecast layout! Learn more

10-Day Weather Forecast

Advertisements
Track Severe Weather on mobile